Time;durP1;ratioP1;P1;durP2;ratioP2;P2;SDS_P1;SDS_P2;PMS_P1;PMS_P2;Temp;Humidity;BMP_temperature;BMP_pressure;BME280_temperature;BME280_humidity;BME280_pressure;Samples;Min_cycle;Max_cycle;Signal;HPM_P1;HPM_P2
2022/04/16 00:00:20;;;;;;;27.55;23.15;;;6.90;99.90;;;;;;4959309;28;92176;-36
2022/04/16 00:02:46;;;;;;;28.55;21.88;;;6.80;99.90;;;;;;4959514;28;94539;-35
2022/04/16 00:05:12;;;;;;;33.05;23.77;;;6.80;99.90;;;;;;4959601;28;95574;-34
2022/04/16 00:07:38;;;;;;;37.50;22.15;;;6.70;99.90;;;;;;4941459;28;93155;-38
2022/04/16 00:10:05;;;;;;;34.75;23.45;;;6.80;99.90;;;;;;4959275;28;92694;-34
2022/04/16 00:12:30;;;;;;;30.83;22.63;;;6.70;99.90;;;;;;4958047;28;97280;-35
2022/04/16 00:14:56;;;;;;;28.08;22.52;;;6.60;99.90;;;;;;4959051;28;94697;-37
2022/04/16 00:17:21;;;;;;;28.80;23.58;;;6.60;99.90;;;;;;4960330;28;94725;-33
2022/04/16 00:19:47;;;;;;;28.88;22.05;;;6.60;99.90;;;;;;4959411;28;93525;-34
2022/04/16 00:22:13;;;;;;;26.65;21.92;;;6.60;99.90;;;;;;4959220;28;94940;-34
2022/04/16 00:24:40;;;;;;;27.55;21.02;;;6.50;99.90;;;;;;4958564;28;94407;-35
2022/04/16 00:27:07;;;;;;;32.20;22.85;;;6.50;99.90;;;;;;4958907;28;93572;-37
2022/04/16 00:29:34;;;;;;;30.75;24.23;;;6.50;99.90;;;;;;5034510;22;92646;-33
2022/04/16 00:32:00;;;;;;;31.48;23.85;;;6.50;99.90;;;;;;4998218;28;94696;-33
2022/04/16 00:34:26;;;;;;;28.00;22.80;;;6.50;99.90;;;;;;4998735;28;94785;-34
2022/04/16 00:36:51;;;;;;;27.88;24.02;;;6.50;99.90;;;;;;4998219;28;94221;-33
2022/04/16 00:39:17;;;;;;;36.65;24.48;;;6.50;99.90;;;;;;4998407;28;92620;-34
2022/04/16 00:41:43;;;;;;;28.33;23.55;;;6.50;99.90;;;;;;4998346;28;95683;-34
2022/04/16 00:44:09;;;;;;;32.17;24.63;;;6.50;99.90;;;;;;4998546;28;94519;-35
2022/04/16 00:46:36;;;;;;;31.05;24.10;;;6.50;99.90;;;;;;4998770;28;94407;-38
2022/04/16 00:49:02;;;;;;;32.28;25.50;;;6.50;99.90;;;;;;4998634;28;93738;-33
2022/04/16 00:51:29;;;;;;;35.42;25.20;;;6.50;99.90;;;;;;4998355;28;94908;-36
2022/04/16 00:53:54;;;;;;;32.00;25.35;;;6.40;99.90;;;;;;4998460;28;93981;-36
2022/04/16 00:56:20;;;;;;;28.00;23.85;;;6.40;99.90;;;;;;4998674;28;94571;-34
2022/04/16 00:58:45;;;;;;;28.15;23.75;;;6.40;99.90;;;;;;4998282;28;92540;-36
2022/04/16 01:01:11;;;;;;;29.15;22.30;;;6.30;99.90;;;;;;4997953;28;95774;-33
2022/04/16 01:03:39;;;;;;;31.52;24.27;;;6.20;99.90;;;;;;4997134;28;95825;-34
2022/04/16 01:06:05;;;;;;;34.15;25.02;;;6.20;99.90;;;;;;4998551;28;93007;-35
2022/04/16 01:08:31;;;;;;;33.45;26.42;;;6.20;99.90;;;;;;4998589;28;94002;-34
2022/04/16 01:10:56;;;;;;;32.28;25.70;;;6.20;99.90;;;;;;4997503;28;94723;-33
2022/04/16 01:13:22;;;;;;;32.70;27.50;;;6.10;99.90;;;;;;4998485;28;94564;-38
2022/04/16 01:15:47;;;;;;;34.70;27.98;;;6.10;99.90;;;;;;4997859;28;94553;-35
2022/04/16 01:18:13;;;;;;;32.55;25.85;;;6.10;99.90;;;;;;4999059;28;92769;-33
2022/04/16 01:20:41;;;;;;;38.75;27.08;;;6.00;99.90;;;;;;4997909;28;96659;-32
2022/04/16 01:23:07;;;;;;;29.02;24.40;;;6.00;99.90;;;;;;4997319;28;95326;-34
2022/04/16 01:25:35;;;;;;;32.42;25.10;;;6.00;99.90;;;;;;4997826;28;93287;-34
2022/04/16 01:28:01;;;;;;;33.13;27.67;;;5.90;99.90;;;;;;4997841;28;94309;-38
2022/04/16 01:30:28;;;;;;;36.33;26.73;;;6.00;99.90;;;;;;4997953;28;94703;-35
2022/04/16 01:32:54;;;;;;;34.00;27.23;;;5.90;99.90;;;;;;4997038;28;94524;-35
2022/04/16 01:35:20;;;;;;;36.53;26.70;;;5.90;99.90;;;;;;4998072;28;92139;-33
2022/04/16 01:37:46;;;;;;;34.30;26.58;;;5.90;99.90;;;;;;4996819;28;92210;-36
2022/04/16 01:40:15;;;;;;;34.58;27.50;;;5.90;99.90;;;;;;4997673;28;95223;-32
2022/04/16 01:42:43;;;;;;;36.63;28.05;;;6.00;99.90;;;;;;4998055;28;94402;-36
2022/04/16 01:45:10;;;;;;;;;;;6.00;99.90;;;;;;4998543;28;94399;-34
2022/04/16 01:47:37;;;;;;;37.22;28.38;;;5.90;99.90;;;;;;4999592;28;94749;-33
2022/04/16 01:50:09;;;;;;;36.60;28.98;;;5.80;99.90;;;;;;4996385;28;95762;-33
2022/04/16 01:52:36;;;;;;;34.33;28.58;;;5.90;99.90;;;;;;4997862;28;96197;-38
2022/04/16 01:55:03;;;;;;;35.80;29.10;;;5.80;99.90;;;;;;4997427;28;94024;-35
2022/04/16 01:57:29;;;;;;;36.40;29.25;;;5.70;99.90;;;;;;4979264;28;93503;-36
2022/04/16 01:59:55;;;;;;;41.13;29.40;;;5.60;99.90;;;;;;4996944;28;94522;-37
2022/04/16 02:02:20;;;;;;;40.65;30.00;;;5.60;99.90;;;;;;4997123;28;94601;-36
2022/04/16 02:04:46;;;;;;;36.60;29.45;;;5.70;99.90;;;;;;4997124;28;93902;-37
2022/04/16 02:07:13;;;;;;;38.63;29.75;;;5.70;99.90;;;;;;4997127;28;93050;-35
2022/04/16 02:09:40;;;;;;;32.65;27.42;;;5.70;99.90;;;;;;4996881;28;95069;-34
2022/04/16 02:12:06;;;;;;;34.33;29.23;;;5.80;99.90;;;;;;4997405;28;94699;-33
2022/04/16 02:14:32;;;;;;;45.05;31.27;;;5.80;99.90;;;;;;4996399;28;95361;-33
2022/04/16 02:16:59;;;;;;;38.40;30.45;;;5.80;99.90;;;;;;4996740;28;93517;-36
2022/04/16 02:19:25;;;;;;;41.30;29.05;;;5.80;99.90;;;;;;4997589;28;93337;-34
2022/04/16 02:21:51;;;;;;;37.72;31.13;;;5.80;99.90;;;;;;4996318;28;95001;-36
2022/04/16 02:24:17;;;;;;;42.22;28.88;;;5.90;99.90;;;;;;4997372;28;92550;-35
2022/04/16 02:26:44;;;;;;;42.83;31.50;;;5.90;99.90;;;;;;4996986;28;92568;-34
2022/04/16 02:29:10;;;;;;;40.03;33.25;;;5.90;99.90;;;;;;4995131;28;93756;-36
2022/04/16 02:31:37;;;;;;;47.40;32.92;;;5.90;99.90;;;;;;4997038;28;94889;-36
2022/04/16 02:34:05;;;;;;;40.90;31.70;;;5.80;99.90;;;;;;4979578;28;94652;-33
2022/04/16 02:36:31;;;;;;;48.53;34.97;;;5.80;99.90;;;;;;4997250;28;94404;-34
2022/04/16 02:38:57;;;;;;;40.28;32.17;;;5.90;99.90;;;;;;4995740;28;96216;-34
2022/04/16 02:41:23;;;;;;;40.17;32.80;;;5.90;99.90;;;;;;4996822;28;94213;-34
2022/04/16 02:43:49;;;;;;;37.58;31.17;;;5.90;99.90;;;;;;4996341;28;93728;-33
2022/04/16 02:49:00;;;;;;;49.50;33.75;;;5.90;99.90;;;;;;4996701;28;95304;-35
2022/04/16 02:51:26;;;;;;;53.78;37.20;;;6.30;99.90;;;;;;4995812;28;94547;-37
2022/04/16 02:53:51;;;;;;;46.05;35.15;;;6.40;99.90;;;;;;4996526;28;93974;-36
2022/04/16 02:56:17;;;;;;;45.53;36.95;;;6.60;99.90;;;;;;4996792;28;91949;-35
2022/04/16 02:58:43;;;;;;;52.28;38.65;;;6.60;99.90;;;;;;4996515;28;94627;-34
2022/04/16 03:01:09;;;;;;;46.00;37.63;;;6.70;99.90;;;;;;4997047;28;94597;-34
2022/04/16 03:03:34;;;;;;;49.28;36.80;;;6.70;99.90;;;;;;4995881;28;93911;-38
2022/04/16 03:06:00;;;;;;;57.55;41.00;;;6.90;99.90;;;;;;4996908;28;92822;-33
2022/04/16 03:08:26;;;;;;;47.85;36.55;;;6.90;99.90;;;;;;4995857;28;94732;-33
2022/04/16 03:10:52;;;;;;;48.42;39.00;;;7.00;99.90;;;;;;4996388;28;94395;-34
2022/04/16 03:13:19;;;;;;;43.25;33.65;;;7.00;99.90;;;;;;4996536;28;94030;-36
2022/04/16 03:18:29;;;;;;;51.10;38.47;;;7.20;99.90;;;;;;4996671;28;95240;-34
2022/04/16 03:20:54;;;;;;;52.35;38.42;;;7.30;99.90;;;;;;4996185;28;94642;-33
2022/04/16 03:23:20;;;;;;;51.05;38.55;;;7.30;99.90;;;;;;4996989;28;93284;-34
2022/04/16 03:25:48;;;;;;;48.45;35.45;;;7.30;99.90;;;;;;4994690;28;92230;-35
2022/04/16 03:28:14;;;;;;;44.87;35.67;;;7.40;99.90;;;;;;4994473;28;95581;-34
2022/04/16 03:30:39;;;;;;;46.80;34.55;;;7.40;99.90;;;;;;4995985;28;95465;-38
2022/04/16 03:33:05;;;;;;;44.38;33.90;;;7.50;99.90;;;;;;4996261;28;92165;-36
2022/04/16 03:35:31;;;;;;;47.67;36.35;;;7.50;99.90;;;;;;4995911;28;92447;-35
2022/04/16 03:37:57;;;;;;;44.45;38.63;;;7.50;99.90;;;;;;4995386;28;95862;-35
2022/04/16 03:40:24;;;;;;;45.85;33.85;;;7.40;99.90;;;;;;4994873;28;94571;-35
2022/04/16 03:42:52;;;;;;;45.08;37.42;;;7.50;99.90;;;;;;4996091;28;93040;-34
2022/04/16 03:45:23;;;;;;;42.72;35.35;;;7.50;99.90;;;;;;4996561;28;91945;-35
2022/04/16 03:47:53;;;;;;;38.33;32.65;;;7.50;99.90;;;;;;4996122;28;94767;-38
2022/04/16 03:50:20;;;;;;;40.13;32.50;;;7.50;99.90;;;;;;4995347;28;94599;-35
2022/04/16 03:52:47;;;;;;;43.75;32.03;;;7.50;99.90;;;;;;4995475;28;95455;-33
2022/04/16 04:00:47;;;;;;;38.50;31.58;;;7.50;99.90;;;;;;4995324;28;94669;-38
2022/04/16 04:03:14;;;;;;;33.55;29.42;;;7.50;99.90;;;;;;4978413;28;93322;-33
2022/04/16 04:05:41;;;;;;;38.97;29.08;;;7.50;99.90;;;;;;4995354;28;95003;-34
2022/04/16 04:08:08;;;;;;;39.10;29.63;;;7.60;99.90;;;;;;4995039;28;94598;-34
2022/04/16 04:10:34;;;;;;;28.92;21.63;;;7.60;99.90;;;;;;4996011;28;94473;-33
2022/04/16 04:13:00;;;;;;;37.20;28.23;;;7.60;99.90;;;;;;4995404;28;94131;-34
2022/04/16 04:15:27;;;;;;;33.67;26.33;;;7.50;99.90;;;;;;4994891;28;93852;-35
2022/04/16 04:17:53;;;;;;;32.13;27.90;;;7.60;99.90;;;;;;4995157;28;95686;-36
2022/04/16 04:20:19;;;;;;;32.58;26.27;;;7.60;99.90;;;;;;4995010;28;96717;-35
2022/04/16 04:22:44;;;;;;;31.58;25.52;;;7.60;99.90;;;;;;4995959;28;93539;-33
2022/04/16 04:25:10;;;;;;;32.92;23.60;;;7.60;99.90;;;;;;4996062;28;93581;-33
2022/04/16 04:27:35;;;;;;;28.38;21.17;;;7.60;99.90;;;;;;4994804;28;94463;-35
2022/04/16 04:30:01;;;;;;;31.33;25.30;;;7.60;99.90;;;;;;4994935;28;94659;-37
2022/04/16 04:32:30;;;;;;;34.75;24.95;;;7.60;99.90;;;;;;4995613;28;92162;-34
2022/04/16 04:34:56;;;;;;;24.38;19.63;;;7.60;99.90;;;;;;4995692;28;92543;-37
2022/04/16 04:37:22;;;;;;;28.95;24.35;;;7.70;99.90;;;;;;4996401;28;95546;-36
2022/04/16 04:39:49;;;;;;;33.33;26.73;;;7.70;99.90;;;;;;4998135;28;94576;-32
2022/04/16 04:42:25;;;;;;;32.58;25.70;;;7.70;99.90;;;;;;4998150;28;93139;-35
2022/04/16 04:44:51;;;;;;;29.85;22.48;;;7.60;99.90;;;;;;4999410;28;94177;-35
2022/04/16 04:47:17;;;;;;;31.33;23.02;;;7.60;99.90;;;;;;4999049;28;95100;-35
2022/04/16 04:49:42;;;;;;;31.92;24.52;;;7.60;99.90;;;;;;4997846;28;94421;-38
2022/04/16 04:52:08;;;;;;;34.55;24.35;;;7.60;99.90;;;;;;4999264;28;93327;-33
2022/04/16 04:54:33;;;;;;;27.50;20.52;;;7.60;99.90;;;;;;4998388;28;94552;-33
2022/04/16 04:56:59;;;;;;;28.27;20.95;;;7.70;99.90;;;;;;4998229;28;94896;-34
2022/04/16 04:59:25;;;;;;;27.50;20.95;;;7.70;99.90;;;;;;4999170;28;95496;-34
2022/04/16 05:01:50;;;;;;;29.52;22.73;;;7.70;99.90;;;;;;4980935;28;93347;-38
2022/04/16 05:04:16;;;;;;;30.52;22.20;;;7.70;99.90;;;;;;4998169;28;94670;-33
2022/04/16 05:06:41;;;;;;;30.13;25.35;;;7.70;99.90;;;;;;4996543;28;96012;-38
2022/04/16 05:09:07;;;;;;;29.55;22.80;;;7.70;99.90;;;;;;4998314;28;96366;-33
2022/04/16 05:11:33;;;;;;;28.48;22.10;;;7.70;99.90;;;;;;4998776;28;94685;-34
2022/04/16 05:13:58;;;;;;;22.58;18.65;;;7.70;99.90;;;;;;4998037;28;93557;-36
2022/04/16 05:16:24;;;;;;;31.33;22.42;;;7.80;99.90;;;;;;4997358;28;95003;-34
2022/04/16 05:18:50;;;;;;;23.95;19.80;;;7.80;99.90;;;;;;4997508;28;94597;-37
2022/04/16 05:21:15;;;;;;;29.10;21.52;;;7.80;99.90;;;;;;4998280;28;93643;-34
2022/04/16 05:23:41;;;;;;;28.23;21.77;;;7.80;99.90;;;;;;4998315;28;94548;-38
2022/04/16 05:26:08;;;;;;;28.15;22.13;;;7.70;99.90;;;;;;4997634;28;95087;-35
2022/04/16 05:28:34;;;;;;;27.50;20.40;;;7.80;99.90;;;;;;4996965;28;94112;-36
2022/04/16 05:31:01;;;;;;;32.00;21.25;;;7.80;99.90;;;;;;4997710;28;95321;-35
2022/04/16 05:36:11;;;;;;;27.05;20.42;;;7.90;99.90;;;;;;4988420;28;94665;-34
2022/04/16 05:38:37;;;;;;;32.78;21.13;;;7.90;99.90;;;;;;4995478;28;95061;-33
2022/04/16 05:41:02;;;;;;;26.42;18.58;;;7.80;99.90;;;;;;4995903;28;93090;-34
2022/04/16 05:43:28;;;;;;;26.00;18.00;;;7.90;99.90;;;;;;4995991;28;93827;-34
2022/04/16 05:45:54;;;;;;;25.77;19.35;;;7.90;99.90;;;;;;4995937;28;94731;-38
2022/04/16 05:48:20;;;;;;;26.95;20.52;;;7.90;99.90;;;;;;4994857;28;94461;-34
2022/04/16 05:50:46;;;;;;;23.15;18.15;;;7.80;99.90;;;;;;4997049;28;93903;-35
2022/04/16 05:53:13;;;;;;;28.83;18.98;;;7.80;99.90;;;;;;4997534;28;93329;-35
2022/04/16 05:55:42;;;;;;;25.10;19.20;;;7.80;99.90;;;;;;4996226;28;95872;-34
2022/04/16 05:58:08;;;;;;;24.77;19.60;;;7.80;99.90;;;;;;4997294;28;95639;-35
2022/04/16 06:00:34;;;;;;;24.50;19.33;;;7.80;99.90;;;;;;4997637;28;93563;-37
2022/04/16 06:03:00;;;;;;;30.02;20.40;;;7.80;99.90;;;;;;4996789;28;94896;-35
2022/04/16 06:05:27;;;;;;;26.42;18.25;;;7.80;99.90;;;;;;4996720;28;94609;-34
2022/04/16 06:07:53;;;;;;;24.23;18.58;;;7.90;99.90;;;;;;4997072;28;94728;-33
2022/04/16 06:10:18;;;;;;;23.38;19.25;;;8.10;99.90;;;;;;4996881;28;93245;-36
2022/04/16 06:12:44;;;;;;;26.92;21.15;;;8.20;99.90;;;;;;4997884;28;92831;-36
2022/04/16 06:15:10;;;;;;;22.92;17.75;;;8.30;99.90;;;;;;4997578;28;96126;-33
2022/04/16 06:17:36;;;;;;;24.10;17.70;;;8.40;99.90;;;;;;4996872;28;94327;-34
2022/04/16 06:20:04;;;;;;;23.60;18.63;;;8.50;99.90;;;;;;4997092;28;94532;-34
2022/04/16 06:22:29;;;;;;;22.33;17.50;;;8.50;99.90;;;;;;4997086;28;93545;-36
2022/04/16 06:24:55;;;;;;;26.38;17.67;;;8.50;99.90;;;;;;4995675;28;94884;-34
2022/04/16 06:27:20;;;;;;;22.27;16.90;;;8.50;99.90;;;;;;4997218;28;95975;-35
2022/04/16 06:29:46;;;;;;;21.42;17.88;;;8.30;99.90;;;;;;4996393;28;94098;-35
2022/04/16 06:32:12;;;;;;;22.98;16.65;;;8.30;99.90;;;;;;4996981;28;92497;-35
2022/04/16 06:34:37;;;;;;;21.30;17.88;;;8.30;99.90;;;;;;4995902;28;94685;-33
2022/04/16 06:37:03;;;;;;;22.60;16.42;;;8.30;99.90;;;;;;4997826;28;95659;-36
2022/04/16 06:39:29;;;;;;;19.13;16.23;;;8.40;99.90;;;;;;4997537;28;94689;-34
2022/04/16 06:41:54;;;;;;;22.15;17.27;;;8.50;99.90;;;;;;4996298;28;94234;-37
2022/04/16 06:44:20;;;;;;;20.98;16.08;;;8.50;99.90;;;;;;4996758;28;96898;-33
2022/04/16 06:46:46;;;;;;;19.67;15.38;;;8.60;99.90;;;;;;4995867;28;95398;-33
2022/04/16 06:49:12;;;;;;;23.90;15.98;;;8.60;99.90;;;;;;4997449;28;94865;-36
2022/04/16 06:51:37;;;;;;;18.77;14.00;;;8.50;99.90;;;;;;4996241;28;94185;-33
2022/04/16 06:54:03;;;;;;;17.92;14.35;;;8.70;99.90;;;;;;4996231;28;95046;-37
2022/04/16 06:56:28;;;;;;;23.02;14.63;;;8.60;99.90;;;;;;4996212;28;94474;-34
2022/04/16 06:58:54;;;;;;;18.15;14.48;;;8.70;99.90;;;;;;4996325;28;94386;-36
2022/04/16 07:01:19;;;;;;;14.73;12.75;;;8.70;99.90;;;;;;4997295;28;92016;-33
2022/04/16 07:03:45;;;;;;;15.93;12.10;;;8.80;99.90;;;;;;4996526;28;94428;-34
2022/04/16 07:06:10;;;;;;;17.08;12.35;;;8.90;99.90;;;;;;4996314;28;94689;-33
2022/04/16 07:08:36;;;;;;;11.73;10.38;;;8.90;99.90;;;;;;4996092;28;94786;-37
2022/04/16 07:11:02;;;;;;;12.65;9.82;;;9.00;99.90;;;;;;4996450;28;94305;-34
2022/04/16 07:13:27;;;;;;;12.60;9.95;;;9.00;99.90;;;;;;4997556;28;94071;-33
2022/04/16 07:15:53;;;;;;;9.88;7.95;;;9.10;99.90;;;;;;4996345;28;94531;-33
2022/04/16 07:18:18;;;;;;;11.68;9.18;;;9.20;99.90;;;;;;4997647;28;92125;-34
2022/04/16 07:20:44;;;;;;;15.55;9.60;;;9.30;99.90;;;;;;4996295;28;93018;-35
2022/04/16 07:23:10;;;;;;;9.93;8.05;;;9.50;99.90;;;;;;4997104;28;95349;-34
2022/04/16 07:25:35;;;;;;;9.45;7.32;;;9.70;99.90;;;;;;4997181;28;94445;-34
2022/04/16 07:28:01;;;;;;;9.90;7.57;;;9.60;99.90;;;;;;4997170;28;93199;-35
2022/04/16 07:30:27;;;;;;;7.38;6.50;;;9.50;99.90;;;;;;4996516;28;94543;-37
2022/04/16 07:32:53;;;;;;;9.48;7.22;;;9.70;99.90;;;;;;4995291;28;95919;-35
2022/04/16 07:35:19;;;;;;;8.27;5.80;;;9.80;99.90;;;;;;4996916;28;95431;-34
2022/04/16 07:37:46;;;;;;;9.27;5.63;;;9.90;99.90;;;;;;4996643;28;92469;-34
2022/04/16 07:40:12;;;;;;;7.18;6.13;;;10.00;99.90;;;;;;4996553;28;94708;-33
2022/04/16 07:42:38;;;;;;;7.30;6.10;;;10.00;99.90;;;;;;4996566;28;95030;-34
2022/04/16 07:45:04;;;;;;;6.82;5.45;;;10.20;99.90;;;;;;4996286;28;95539;-33
2022/04/16 07:47:30;;;;;;;5.57;4.38;;;10.30;99.90;;;;;;4996744;28;94141;-38
2022/04/16 07:49:55;;;;;;;9.38;5.57;;;10.10;99.90;;;;;;4996534;28;94550;-35
2022/04/16 07:52:24;;;;;;;5.60;4.80;;;10.00;99.90;;;;;;4996132;28;94622;-38
2022/04/16 07:54:53;;;;;;;8.40;6.05;;;10.00;99.90;;;;;;4995486;28;94569;-37
2022/04/16 07:57:19;;;;;;;7.57;5.10;;;10.20;99.90;;;;;;4995539;28;93156;-34
2022/04/16 07:59:44;;;;;;;7.55;5.22;;;10.20;99.90;;;;;;4993832;28;94234;-33
2022/04/16 08:02:10;;;;;;;7.22;5.65;;;10.30;99.90;;;;;;4996129;28;94619;-38
2022/04/16 08:04:36;;;;;;;8.35;5.40;;;10.70;99.90;;;;;;4996678;28;94461;-34
2022/04/16 08:07:01;;;;;;;9.57;6.35;;;11.00;99.90;;;;;;4996238;28;93796;-33
2022/04/16 08:09:27;;;;;;;5.35;4.57;;;10.80;99.90;;;;;;4996612;28;94489;-35
2022/04/16 08:11:52;;;;;;;6.03;5.43;;;10.80;99.90;;;;;;4996502;28;94861;-35
2022/04/16 08:14:20;;;;;;;6.18;5.07;;;10.70;99.90;;;;;;5000461;28;94927;-34
2022/04/16 08:16:46;;;;;;;4.90;4.40;;;10.70;99.90;;;;;;4999807;28;93698;-37
2022/04/16 08:19:11;;;;;;;9.05;4.78;;;10.70;99.90;;;;;;4999628;28;93026;-36
2022/04/16 08:21:37;;;;;;;7.97;4.82;;;10.70;99.90;;;;;;4999237;28;95830;-37
2022/04/16 08:24:13;;;;;;;5.50;3.42;;;10.70;99.90;;;;;;4999113;28;96620;-36
2022/04/16 08:26:40;;;;;;;4.22;3.75;;;10.80;94.10;;;;;;4999536;28;93945;-37
2022/04/16 08:29:06;;;;;;;4.95;4.55;;;10.80;98.60;;;;;;4999923;28;92212;-35
2022/04/16 08:31:31;;;;;;;4.25;3.83;;;11.00;99.90;;;;;;4999257;28;96152;-34
2022/04/16 08:33:57;;;;;;;5.28;4.78;;;11.10;93.20;;;;;;4998949;28;96382;-35
2022/04/16 08:36:23;;;;;;;4.63;3.63;;;11.00;91.10;;;;;;4999489;28;93095;-37
2022/04/16 08:38:48;;;;;;;5.22;3.55;;;11.20;83.70;;;;;;4999616;28;91878;-34
2022/04/16 08:41:14;;;;;;;3.53;2.67;;;11.70;76.90;;;;;;4999979;28;95229;-36
2022/04/16 08:43:42;;;;;;;4.40;3.83;;;12.10;67.60;;;;;;4997093;28;94941;-35
2022/04/16 08:46:08;;;;;;;4.30;3.90;;;12.20;68.20;;;;;;4997008;28;94987;-35
2022/04/16 08:48:35;;;;;;;4.55;3.28;;;11.80;67.70;;;;;;4996946;28;93314;-36
2022/04/16 08:51:01;;;;;;;5.32;3.90;;;12.20;67.90;;;;;;4995731;28;94424;-36
2022/04/16 08:53:27;;;;;;;5.18;3.60;;;12.30;70.00;;;;;;4997048;28;94694;-37
2022/04/16 08:55:53;;;;;;;6.13;4.15;;;12.20;67.30;;;;;;4996429;28;92809;-34
2022/04/16 08:58:19;;;;;;;3.35;2.90;;;12.20;69.30;;;;;;4996678;28;92266;-37
2022/04/16 09:00:44;;;;;;;7.53;2.75;;;12.20;64.40;;;;;;4996527;28;95284;-33
2022/04/16 09:03:10;;;;;;;3.30;2.97;;;12.00;64.70;;;;;;4996814;28;94573;-34
2022/04/16 09:05:36;;;;;;;3.20;2.67;;;11.70;64.90;;;;;;4996592;28;93058;-34
2022/04/16 09:08:04;;;;;;;3.55;3.03;;;11.90;66.80;;;;;;4996735;28;93614;-38
2022/04/16 09:10:31;;;;;;;5.32;3.00;;;12.10;65.00;;;;;;4995552;28;95895;-36
2022/04/16 09:12:59;;;;;;;3.95;3.05;;;12.50;65.60;;;;;;4995586;28;95424;-36
2022/04/16 09:15:26;;;;;;;7.10;2.72;;;12.10;63.40;;;;;;4996755;28;93798;-38
2022/04/16 09:18:06;;;;;;;3.17;2.67;;;12.10;64.20;;;;;;4996539;28;94106;-35
2022/04/16 09:20:34;;;;;;;4.43;2.25;;;12.50;64.70;;;;;;4996266;28;94691;-35
2022/04/16 09:23:01;;;;;;;2.45;2.17;;;12.50;57.10;;;;;;4996541;28;94248;-34
2022/04/16 09:25:30;;;;;;;3.17;2.35;;;12.60;58.20;;;;;;4996605;28;92693;-35
2022/04/16 09:27:55;;;;;;;3.30;2.28;;;12.90;57.30;;;;;;4997107;28;93674;-36
2022/04/16 09:30:27;;;;;;;2.42;2.20;;;12.70;55.90;;;;;;4995306;28;94838;-33
2022/04/16 09:32:55;;;;;;;7.38;2.42;;;13.20;56.90;;;;;;4995492;28;94573;-38
2022/04/16 09:35:38;;;;;;;3.88;2.13;;;13.40;57.20;;;;;;4996183;28;94512;-36
2022/04/16 09:38:08;;;;;;;4.60;2.45;;;13.10;57.90;;;;;;4996726;28;92543;-35
2022/04/16 09:40:36;;;;;;;2.05;1.92;;;13.30;60.20;;;;;;4996246;28;94889;-33
2022/04/16 09:43:06;;;;;;;2.95;2.28;;;13.30;57.90;;;;;;4995951;28;94071;-33
2022/04/16 09:45:32;;;;;;;3.13;2.45;;;13.30;59.30;;;;;;4995475;28;94677;-34
2022/04/16 09:47:59;;;;;;;1.55;1.45;;;13.00;56.00;;;;;;4996242;28;93939;-38
2022/04/16 09:50:27;;;;;;;1.60;1.38;;;12.70;56.30;;;;;;4995960;28;94799;-33
2022/04/16 09:52:57;;;;;;;1.50;1.40;;;12.70;56.50;;;;;;4996297;28;94460;-34
2022/04/16 09:55:24;;;;;;;1.65;1.00;;;13.20;56.40;;;;;;4995577;28;93386;-35
2022/04/16 09:57:58;;;;;;;2.90;1.75;;;13.00;52.70;;;;;;4995046;28;93766;-35
2022/04/16 10:00:25;;;;;;;2.03;1.83;;;12.80;54.30;;;;;;4995106;28;95996;-36
2022/04/16 10:02:53;;;;;;;1.95;1.80;;;13.00;55.40;;;;;;4995110;28;96819;-35
2022/04/16 10:05:23;;;;;;;1.87;1.77;;;13.20;56.00;;;;;;4995706;28;92658;-37
2022/04/16 10:07:50;;;;;;;2.58;1.90;;;13.30;54.00;;;;;;4995050;28;93047;-35
2022/04/16 10:10:24;;;;;;;9.82;2.00;;;12.70;56.60;;;;;;4995715;28;94389;-34
2022/04/16 10:12:59;;;;;;;1.95;1.80;;;13.10;56.80;;;;;;4995438;28;96231;-34
2022/04/16 10:15:47;;;;;;;3.38;2.17;;;13.50;56.30;;;;;;4995377;28;94378;-37
2022/04/16 10:18:13;;;;;;;1.40;1.30;;;13.40;52.90;;;;;;4995536;28;93506;-37
2022/04/16 10:21:09;;;;;;;2.05;1.85;;;13.60;53.80;;;;;;4994831;28;94361;-36
2022/04/16 10:23:40;;;;;;;2.72;2.30;;;13.30;55.40;;;;;;4994673;28;93183;-34
2022/04/16 10:26:09;;;;;;;1.67;1.45;;;13.40;56.90;;;;;;4995947;28;93412;-34
2022/04/16 10:28:55;;;;;;;3.65;1.52;;;13.00;54.70;;;;;;4994756;28;94363;-36
2022/04/16 10:31:28;;;;;;;1.67;1.58;;;13.40;55.60;;;;;;4994817;28;95046;-35
2022/04/16 10:34:05;;;;;;;2.13;1.80;;;13.50;53.80;;;;;;4995624;28;94743;-37
2022/04/16 10:36:41;;;;;;;1.80;1.40;;;13.70;54.30;;;;;;4994790;28;93136;-34
2022/04/16 10:39:17;;;;;;;1.60;1.50;;;13.20;53.50;;;;;;4994989;28;93000;-34
2022/04/16 10:42:01;;;;;;;2.80;1.90;;;13.10;55.10;;;;;;4993967;28;97142;-36
2022/04/16 10:44:28;;;;;;;1.80;1.67;;;13.20;55.20;;;;;;4995850;28;94307;-34
2022/04/16 10:46:54;;;;;;;2.23;1.30;;;13.70;54.30;;;;;;4994671;28;94736;-36
2022/04/16 10:49:25;;;;;;;1.98;1.77;;;13.60;50.90;;;;;;4995308;28;92249;-35
2022/04/16 10:51:52;;;;;;;2.85;1.73;;;13.50;52.20;;;;;;4994826;28;95592;-35
2022/04/16 10:54:32;;;;;;;1.83;1.57;;;13.60;51.20;;;;;;4994787;28;97100;-36
2022/04/16 10:56:59;;;;;;;3.13;1.80;;;14.10;50.90;;;;;;4995398;28;93853;-38
2022/04/16 10:59:42;;;;;;;2.30;1.65;;;13.90;52.20;;;;;;4994806;28;92600;-36
2022/04/16 11:02:16;;;;;;;2.63;1.80;;;14.00;52.90;;;;;;4995353;28;94860;-37
2022/04/16 11:04:42;;;;;;;2.10;1.60;;;13.50;53.60;;;;;;4993528;28;95921;-32
2022/04/16 11:07:08;;;;;;;2.30;2.10;;;13.60;54.70;;;;;;4995124;28;92095;-38
2022/04/16 11:09:35;;;;;;;2.60;2.17;;;13.50;52.70;;;;;;4995439;28;92860;-38
2022/04/16 11:12:05;;;;;;;2.95;1.73;;;13.20;53.00;;;;;;4995055;28;94885;-34
2022/04/16 11:14:31;;;;;;;1.70;1.60;;;13.40;53.50;;;;;;4994867;28;95148;-38
2022/04/16 11:17:03;;;;;;;1.65;1.48;;;13.70;54.10;;;;;;4994190;28;95719;-38
2022/04/16 11:19:29;;;;;;;2.25;2.00;;;14.00;51.90;;;;;;4994616;28;93044;-35
2022/04/16 11:21:54;;;;;;;2.30;2.10;;;13.80;52.40;;;;;;4994999;28;95324;-36
2022/04/16 11:24:20;;;;;;;4.95;2.30;;;14.00;55.50;;;;;;4994580;28;96255;-34
2022/04/16 11:35:00;;;;;;;2.65;2.30;;;13.60;55.80;;;;;;4995125;28;95009;-34
2022/04/16 11:37:26;;;;;;;1.90;1.73;;;13.40;55.10;;;;;;4994737;28;94282;-35
2022/04/16 11:40:06;;;;;;;2.50;1.58;;;13.70;52.60;;;;;;4994072;28;93463;-36
2022/04/16 11:42:32;;;;;;;1.52;1.42;;;14.00;52.30;;;;;;4993505;28;95750;-38
2022/04/16 11:44:58;;;;;;;3.38;2.20;;;14.40;51.00;;;;;;4994248;28;95271;-38
2022/04/16 11:47:27;;;;;;;2.47;2.28;;;14.20;50.10;;;;;;4993838;28;94063;-36
2022/04/16 11:50:01;;;;;;;1.55;1.45;;;14.10;49.90;;;;;;4994113;28;94942;-34
2022/04/16 11:52:31;;;;;;;1.65;1.42;;;14.00;50.10;;;;;;4994385;28;95380;-34
2022/04/16 11:55:04;;;;;;;1.77;1.40;;;13.90;47.10;;;;;;4993995;28;93863;-35
2022/04/16 11:57:31;;;;;;;1.25;1.15;;;13.80;46.90;;;;;;4994442;28;95134;-34
2022/04/16 11:59:58;;;;;;;2.10;1.33;;;14.00;49.30;;;;;;4994869;28;93030;-36
2022/04/16 12:02:33;;;;;;;1.27;1.17;;;14.20;47.70;;;;;;4993939;28;96172;-36
2022/04/16 12:05:14;;;;;;;3.88;1.48;;;14.10;45.90;;;;;;4993045;28;94619;-37
2022/04/16 12:07:41;;;;;;;1.65;1.55;;;14.20;46.60;;;;;;4992662;28;93147;-36
2022/04/16 12:10:07;;;;;;;4.22;1.95;;;13.90;49.40;;;;;;4994096;28;93305;-35
2022/04/16 12:12:54;;;;;;;2.35;1.77;;;13.80;49.00;;;;;;4993441;28;94248;-34
2022/04/16 12:15:22;;;;;;;3.73;2.07;;;13.80;49.50;;;;;;4994053;28;94655;-35
2022/04/16 12:17:48;;;;;;;2.25;2.00;;;13.90;49.80;;;;;;4993769;28;93261;-35
2022/04/16 12:20:14;;;;;;;2.03;1.75;;;14.20;51.80;;;;;;4993856;28;92400;-35
2022/04/16 12:22:56;;;;;;;1.83;1.65;;;14.20;50.20;;;;;;4993657;28;95864;-34
2022/04/16 12:25:23;;;;;;;2.38;1.38;;;14.10;48.50;;;;;;4993953;28;94629;-36
2022/04/16 12:27:50;;;;;;;2.15;1.25;;;14.00;48.90;;;;;;4993549;28;94378;-33
2022/04/16 12:30:27;;;;;;;1.05;1.02;;;14.20;51.50;;;;;;5008279;22;92936;-33
2022/04/16 12:33:02;;;;;;;1.52;1.42;;;14.10;49.70;;;;;;4972474;28;95974;-35
2022/04/16 12:35:29;;;;;;;2.58;1.40;;;14.10;48.90;;;;;;4974137;28;95599;-37
2022/04/16 12:37:56;;;;;;;1.45;1.27;;;14.10;49.10;;;;;;4973773;28;93050;-37
2022/04/16 12:40:23;;;;;;;1.67;1.35;;;13.80;47.40;;;;;;4973791;28;94257;-34
2022/04/16 12:42:53;;;;;;;1.33;1.23;;;14.00;48.30;;;;;;4973715;28;95082;-35
2022/04/16 12:45:20;;;;;;;2.22;1.70;;;14.20;45.20;;;;;;4974071;28;94451;-37
2022/04/16 12:47:46;;;;;;;1.52;1.38;;;14.10;46.30;;;;;;4973745;28;94441;-36
2022/04/16 12:50:13;;;;;;;3.25;1.40;;;13.80;46.40;;;;;;4973362;28;92466;-35
2022/04/16 12:52:40;;;;;;;3.42;1.55;;;14.10;48.30;;;;;;4973345;28;94598;-36
2022/04/16 12:55:06;;;;;;;2.22;1.40;;;14.40;48.50;;;;;;4974499;28;94691;-33
2022/04/16 12:57:32;;;;;;;5.95;1.48;;;14.50;47.80;;;;;;4973423;28;94186;-36
2022/04/16 12:59:57;;;;;;;1.98;1.58;;;14.30;48.30;;;;;;4976166;28;92759;-36
2022/04/16 13:02:24;;;;;;;1.88;1.42;;;14.40;49.00;;;;;;4977093;28;95044;-35
2022/04/16 13:04:51;;;;;;;1.67;1.50;;;14.50;47.50;;;;;;4975969;28;94547;-33